createdAt,value
2023-12-13T00:02:29.040Z,-31.17
2023-12-13T00:05:32.849Z,-31.15
2023-12-13T00:08:37.752Z,-31.06
2023-12-13T00:11:41.412Z,-31.04
2023-12-13T00:14:44.976Z,-31.04
2023-12-13T00:17:49.685Z,-30.89
2023-12-13T00:20:54.242Z,-30.76
2023-12-13T00:23:58.171Z,-30.68
2023-12-13T00:27:02.679Z,-30.61
2023-12-13T00:30:08.740Z,-30.66
2023-12-13T00:33:13.940Z,-30.75
2023-12-13T00:36:17.972Z,-30.84
2023-12-13T00:39:22.124Z,-30.79
2023-12-13T00:42:26.228Z,-30.70
2023-12-13T00:45:31.288Z,-30.78
2023-12-13T00:48:35.932Z,-30.72
2023-12-13T00:51:39.774Z,-30.66
2023-12-13T00:54:43.530Z,-30.54
2023-12-13T00:57:47.497Z,-30.44
2023-12-13T01:00:51.582Z,-30.38
2023-12-13T01:03:55.801Z,-30.35
2023-12-13T01:06:59.465Z,-30.26
2023-12-13T01:10:03.667Z,-30.19
2023-12-13T01:13:07.611Z,-30.19
2023-12-13T01:16:12.296Z,-30.28
2023-12-13T01:19:16.317Z,-30.43
2023-12-13T01:22:22.554Z,-30.53
2023-12-13T01:25:26.155Z,-30.47
2023-12-13T01:28:29.879Z,-30.37
2023-12-13T01:31:33.489Z,-30.27
2023-12-13T01:34:37.601Z,-30.26
2023-12-13T01:37:42.477Z,-30.16
2023-12-13T01:41:10.971Z,-30.04
2023-12-13T01:44:17.006Z,-29.88
2023-12-13T01:47:21.019Z,-29.94
2023-12-13T01:50:26.700Z,-29.90
2023-12-13T01:53:32.767Z,-29.81
2023-12-13T01:56:41.356Z,-29.65
2023-12-13T01:59:45.290Z,-29.60
2023-12-13T02:02:49.947Z,-29.61
2023-12-13T02:05:55.104Z,-29.58
2023-12-13T02:09:00.504Z,-29.57
2023-12-13T02:12:04.685Z,-29.63
2023-12-13T02:15:09.500Z,-29.71
2023-12-13T02:18:18.760Z,-29.58
2023-12-13T02:21:22.387Z,-29.39
2023-12-13T02:24:30.254Z,-29.36
2023-12-13T02:27:35.450Z,-29.19
2023-12-13T02:30:40.075Z,-29.19
2023-12-13T02:33:43.730Z,-29.20
2023-12-13T02:36:47.574Z,-29.28
2023-12-13T02:39:51.295Z,-29.22
2023-12-13T02:42:58.200Z,-29.08
2023-12-13T02:46:01.675Z,-28.99
2023-12-13T02:49:11.453Z,-28.90
2023-12-13T02:52:18.527Z,-28.84
2023-12-13T02:55:23.089Z,-28.72
2023-12-13T02:58:27.200Z,-28.65
2023-12-13T03:01:31.849Z,-28.67
2023-12-13T03:04:36.610Z,-28.69
2023-12-13T03:07:42.016Z,-28.53
2023-12-13T03:10:45.773Z,-28.41
2023-12-13T03:13:49.753Z,-28.30
2023-12-13T03:16:55.192Z,-28.24
2023-12-13T03:20:00.020Z,-28.21
2023-12-13T03:23:09.049Z,-28.21
2023-12-13T03:26:12.450Z,-28.16
2023-12-13T03:29:17.186Z,-27.93
2023-12-13T03:32:21.149Z,-27.82
2023-12-13T03:35:24.933Z,-27.70
2023-12-13T03:38:28.480Z,-27.57
2023-12-13T03:41:33.208Z,-27.47
2023-12-13T03:44:37.240Z,-27.58
2023-12-13T03:47:41.168Z,-27.54
2023-12-13T03:50:45.153Z,-27.47
2023-12-13T03:53:49.522Z,-27.33
2023-12-13T03:56:54.210Z,-27.17
2023-12-13T03:59:58.006Z,-27.06
2023-12-13T04:03:01.715Z,-26.99
2023-12-13T04:06:07.349Z,-26.86
2023-12-13T04:09:12.431Z,-26.76
2023-12-13T04:12:16.450Z,-26.72
2023-12-13T04:15:20.074Z,-26.72
2023-12-13T04:18:23.832Z,-26.68
2023-12-13T04:21:28.164Z,-26.58
2023-12-13T04:24:31.942Z,-26.55
2023-12-13T04:27:36.076Z,-26.57
2023-12-13T04:30:41.149Z,-26.51
2023-12-13T04:33:45.299Z,-26.47
2023-12-13T04:36:48.936Z,-26.40
2023-12-13T04:39:52.956Z,-26.22
2023-12-13T04:42:56.641Z,-26.09
2023-12-13T04:46:01.529Z,-25.89
2023-12-13T04:49:05.244Z,-25.76
2023-12-13T04:52:08.680Z,-25.81
2023-12-13T04:55:12.295Z,-25.84
2023-12-13T04:58:16.992Z,-25.88
2023-12-13T05:01:22.678Z,-25.88
2023-12-13T05:04:27.901Z,-25.93
2023-12-13T05:07:32.013Z,-26.12
2023-12-13T05:10:36.592Z,-26.15
2023-12-13T05:13:41.093Z,-26.10
2023-12-13T05:16:45.435Z,-26.01
2023-12-13T05:19:49.100Z,-26.19
2023-12-13T05:22:54.361Z,-26.37
2023-12-13T05:25:58.456Z,-26.31
2023-12-13T05:29:02.057Z,-26.19
2023-12-13T05:32:05.807Z,-26.09
2023-12-13T05:35:11.577Z,-26.12
2023-12-13T05:38:15.638Z,-26.03
2023-12-13T05:41:21.976Z,-26.16
2023-12-13T05:44:25.542Z,-26.21
2023-12-13T05:47:30.812Z,-26.19
2023-12-13T05:50:34.478Z,-26.12
2023-12-13T05:53:38.034Z,-26.03
2023-12-13T05:56:41.711Z,-25.98
2023-12-13T05:59:46.501Z,-25.81
2023-12-13T06:02:55.764Z,-25.76
2023-12-13T06:06:00.516Z,-25.76
2023-12-13T06:09:05.052Z,-25.72
2023-12-13T06:12:10.511Z,-25.76
2023-12-13T06:15:15.753Z,-25.68
2023-12-13T06:18:19.673Z,-25.54
2023-12-13T06:21:23.259Z,-25.34
2023-12-13T06:24:27.478Z,-25.15
2023-12-13T06:27:33.089Z,-25.14
2023-12-13T06:30:37.272Z,-25.20
2023-12-13T06:33:44.915Z,-25.15
2023-12-13T06:36:48.680Z,-25.11
2023-12-13T06:39:53.052Z,-24.94
2023-12-13T06:42:57.209Z,-24.88
2023-12-13T06:46:02.159Z,-24.73
2023-12-13T06:49:06.917Z,-24.73
2023-12-13T06:52:10.459Z,-24.71
2023-12-13T06:55:15.138Z,-24.56
2023-12-13T06:58:20.366Z,-24.46
2023-12-13T07:01:25.037Z,-24.37
2023-12-13T07:04:29.193Z,-24.19
2023-12-13T07:07:33.090Z,-24.08
2023-12-13T07:10:36.748Z,-24.14
2023-12-13T07:13:40.721Z,-24.19
2023-12-13T07:16:47.659Z,-24.19
2023-12-13T07:19:52.194Z,-24.12
2023-12-13T07:22:55.939Z,-24.05
2023-12-13T07:26:00.372Z,-23.98
2023-12-13T07:29:04.889Z,-23.94
2023-12-13T07:32:08.400Z,-23.88
2023-12-13T07:35:12.839Z,-23.84
2023-12-13T07:38:16.847Z,-23.81
2023-12-13T07:41:21.451Z,-23.90
2023-12-13T07:44:25.040Z,-23.92
2023-12-13T07:47:28.665Z,-23.96
2023-12-13T07:50:32.850Z,-24.02
2023-12-13T07:53:36.476Z,-24.01
2023-12-13T07:56:40.114Z,-24.17
2023-12-13T07:59:44.687Z,-24.27
2023-12-13T08:02:48.646Z,-24.32
2023-12-13T08:05:52.511Z,-24.30
2023-12-13T08:08:56.035Z,-24.36
2023-12-13T08:12:00.274Z,-24.53
2023-12-13T08:15:07.126Z,-24.51
2023-12-13T08:18:11.206Z,-24.45
2023-12-13T08:21:14.857Z,-24.47
2023-12-13T08:24:18.505Z,-24.50
2023-12-13T08:27:22.179Z,-24.60
2023-12-13T08:30:25.916Z,-24.62
2023-12-13T08:33:29.688Z,-24.66
2023-12-13T08:36:33.404Z,-24.69
2023-12-13T08:39:36.967Z,-24.81
2023-12-13T08:42:45.369Z,-24.84
2023-12-13T08:45:49.582Z,-24.73
2023-12-13T08:48:53.500Z,-24.76
2023-12-13T08:51:57.198Z,-24.79
2023-12-13T08:55:00.787Z,-24.83
2023-12-13T08:58:04.319Z,-24.93
2023-12-13T09:01:08.360Z,-24.84
2023-12-13T09:04:12.271Z,-24.86
2023-12-13T09:07:16.368Z,-24.85
2023-12-13T09:10:19.857Z,-24.85
2023-12-13T09:13:23.618Z,-24.85
2023-12-13T09:16:27.398Z,-24.87
2023-12-13T09:19:30.985Z,-24.94
2023-12-13T09:22:34.700Z,-24.98
2023-12-13T09:25:38.353Z,-25.01
2023-12-13T09:28:42.652Z,-25.03
2023-12-13T09:31:47.381Z,-25.13
2023-12-13T09:34:51.067Z,-25.10
2023-12-13T09:37:54.821Z,-25.08
2023-12-13T09:40:58.764Z,-25.11
2023-12-13T09:44:02.260Z,-25.15
2023-12-13T09:47:06.182Z,-25.17
2023-12-13T09:50:13.145Z,-25.16
2023-12-13T09:53:18.121Z,-25.28
2023-12-13T09:56:23.133Z,-25.31
2023-12-13T09:59:27.087Z,-25.38
2023-12-13T10:02:30.880Z,-25.38
2023-12-13T10:05:35.828Z,-25.42
2023-12-13T10:08:39.311Z,-25.47
2023-12-13T10:11:43.511Z,-25.49
2023-12-13T10:14:46.999Z,-25.41
2023-12-13T10:17:50.845Z,-25.43
2023-12-13T10:20:54.393Z,-25.49
2023-12-13T10:23:58.034Z,-25.54
2023-12-13T10:27:02.043Z,-25.59
2023-12-13T10:30:06.584Z,-25.66
2023-12-13T10:33:10.218Z,-25.74
2023-12-13T10:36:14.254Z,-25.79
2023-12-13T10:39:24.645Z,-25.78
2023-12-13T10:42:28.855Z,-25.83
2023-12-13T10:45:32.935Z,-25.84
2023-12-13T10:48:41.705Z,-25.82
2023-12-13T10:51:48.221Z,-25.75
2023-12-13T10:54:54.210Z,-25.62
2023-12-13T10:57:59.638Z,-25.62
2023-12-13T11:01:04.008Z,-25.70
2023-12-13T11:04:18.630Z,-25.59
2023-12-13T11:07:23.322Z,-25.53
2023-12-13T11:10:27.155Z,-25.64
2023-12-13T11:13:31.248Z,-25.65
2023-12-13T11:16:41.728Z,-25.70
2023-12-13T11:19:46.268Z,-25.78
2023-12-13T11:22:51.053Z,-25.81
2023-12-13T11:25:57.247Z,-25.86
2023-12-13T11:29:02.054Z,-25.84
2023-12-13T11:32:07.177Z,-25.93
2023-12-13T11:35:19.246Z,-25.93
2023-12-13T11:38:23.192Z,-26.06
2023-12-13T11:41:29.505Z,-26.07
2023-12-13T11:44:35.120Z,-26.14
2023-12-13T11:47:40.073Z,-26.25
2023-12-13T11:50:43.711Z,-26.25
2023-12-13T11:53:47.200Z,-26.16
2023-12-13T11:56:51.126Z,-26.10
2023-12-13T11:59:54.800Z,-26.08
2023-12-13T12:02:58.384Z,-26.08
2023-12-13T12:06:02.071Z,-26.06
2023-12-13T12:09:06.433Z,-26.16
2023-12-13T12:12:12.851Z,-26.37
2023-12-13T12:15:18.085Z,-26.37
2023-12-13T12:18:21.817Z,-26.31
2023-12-13T12:21:25.813Z,-26.31
2023-12-13T12:24:30.794Z,-26.28
2023-12-13T12:27:35.081Z,-26.35
2023-12-13T12:30:41.745Z,-26.44
2023-12-13T12:33:45.526Z,-26.51
2023-12-13T12:36:49.348Z,-26.51
2023-12-13T12:39:53.015Z,-26.55
2023-12-13T12:42:56.589Z,-26.52
2023-12-13T12:46:00.064Z,-26.57
2023-12-13T12:49:03.647Z,-26.51
2023-12-13T12:52:08.176Z,-26.55
2023-12-13T12:55:11.861Z,-26.50
2023-12-13T12:58:15.481Z,-26.50
2023-12-13T13:01:19.196Z,-26.59
2023-12-13T13:04:23.263Z,-26.63
2023-12-13T13:07:27.377Z,-26.56
2023-12-13T13:10:31.621Z,-26.54
2023-12-13T13:13:35.162Z,-26.52
2023-12-13T13:16:39.452Z,-26.49
2023-12-13T13:19:43.346Z,-26.43
2023-12-13T13:22:47.696Z,-26.47
2023-12-13T13:25:51.318Z,-26.51
2023-12-13T13:28:55.952Z,-26.59
2023-12-13T13:31:59.714Z,-26.68
2023-12-13T13:35:03.626Z,-26.68
2023-12-13T13:38:07.275Z,-26.58
2023-12-13T13:41:10.928Z,-26.55
2023-12-13T13:44:14.567Z,-26.51
2023-12-13T13:47:18.285Z,-26.72
2023-12-13T13:50:21.930Z,-26.69
2023-12-13T13:53:27.427Z,-26.63
2023-12-13T13:56:35.877Z,-26.58
2023-12-13T13:59:42.486Z,-26.55
2023-12-13T14:02:47.713Z,-26.73
2023-12-13T14:05:51.268Z,-26.77
2023-12-13T14:08:55.734Z,-26.72
2023-12-13T14:11:59.324Z,-26.80
2023-12-13T14:15:02.901Z,-26.77
2023-12-13T14:18:09.464Z,-26.77
2023-12-13T14:21:13.301Z,-26.83
2023-12-13T14:24:16.878Z,-26.89
2023-12-13T14:27:21.085Z,-26.94
2023-12-13T14:30:25.105Z,-27.00
2023-12-13T14:33:30.926Z,-27.17
2023-12-13T14:36:34.594Z,-27.28
2023-12-13T14:39:38.515Z,-27.36
2023-12-13T14:42:41.976Z,-27.40
2023-12-13T14:45:45.754Z,-27.37
2023-12-13T14:48:50.644Z,-27.36
2023-12-13T14:51:57.459Z,-27.48
2023-12-13T14:55:01.191Z,-27.60
2023-12-13T14:58:04.659Z,-27.65
2023-12-13T15:01:08.657Z,-27.71
2023-12-13T15:04:12.253Z,-27.77
2023-12-13T15:07:17.088Z,-27.85
2023-12-13T15:10:20.974Z,-27.74
2023-12-13T15:13:28.534Z,-27.69
2023-12-13T15:16:32.615Z,-27.72
2023-12-13T15:19:36.149Z,-27.74
2023-12-13T15:22:39.796Z,-27.80
2023-12-13T15:25:43.632Z,-27.82
2023-12-13T15:28:47.690Z,-27.80
2023-12-13T15:31:51.411Z,-27.80
2023-12-13T15:34:54.858Z,-27.84
2023-12-13T15:37:58.566Z,-27.89
2023-12-13T15:41:02.371Z,-27.85
2023-12-13T15:44:08.653Z,-27.91
2023-12-13T15:47:12.269Z,-27.91
2023-12-13T15:50:16.279Z,-27.86
2023-12-13T15:53:20.828Z,-27.93
2023-12-13T15:56:24.400Z,-27.93
2023-12-13T15:59:27.973Z,-27.92
2023-12-13T16:02:31.740Z,-27.95
2023-12-13T16:05:35.266Z,-28.01
2023-12-13T16:08:38.956Z,-28.02
2023-12-13T16:11:43.564Z,-28.01
2023-12-13T16:14:47.680Z,-27.99
2023-12-13T16:17:51.732Z,-27.92
2023-12-13T16:20:55.384Z,-27.91
2023-12-13T16:23:58.903Z,-27.94
2023-12-13T16:27:02.584Z,-27.96
2023-12-13T16:30:06.762Z,-28.01
2023-12-13T16:33:13.008Z,-28.07
2023-12-13T16:36:19.504Z,-28.07
2023-12-13T16:39:22.947Z,-28.04
2023-12-13T16:42:27.277Z,-28.01
2023-12-13T16:45:30.904Z,-28.00
2023-12-13T16:48:34.579Z,-28.04
2023-12-13T16:51:38.184Z,-28.03
2023-12-13T16:54:44.901Z,-27.97
2023-12-13T16:57:49.691Z,-27.89
2023-12-13T17:00:53.420Z,-27.93
2023-12-13T17:03:59.826Z,-28.00
2023-12-13T17:07:03.518Z,-28.09
2023-12-13T17:10:07.536Z,-28.07
2023-12-13T17:13:11.042Z,-28.17
2023-12-13T17:16:14.827Z,-28.16
2023-12-13T17:19:21.554Z,-28.15
2023-12-13T17:22:25.711Z,-28.23
2023-12-13T17:25:29.591Z,-28.28
2023-12-13T17:28:34.632Z,-28.29
2023-12-13T17:31:38.149Z,-28.41
2023-12-13T17:34:41.828Z,-28.50
2023-12-13T17:37:45.607Z,-28.53
2023-12-13T17:40:49.357Z,-28.55
2023-12-13T17:43:57.866Z,-28.65
2023-12-13T17:47:02.678Z,-28.60
2023-12-13T17:50:07.194Z,-28.61
2023-12-13T17:53:11.053Z,-28.59
2023-12-13T17:56:18.570Z,-28.54
2023-12-13T17:59:22.224Z,-28.50
2023-12-13T18:02:27.615Z,-28.60
2023-12-13T18:05:31.138Z,-28.69
2023-12-13T18:08:35.168Z,-28.73
2023-12-13T18:11:38.745Z,-28.68
2023-12-13T18:14:42.447Z,-28.65
2023-12-13T18:17:46.247Z,-28.65
2023-12-13T18:20:49.875Z,-28.60
2023-12-13T18:23:53.658Z,-28.75
2023-12-13T18:26:57.317Z,-28.83
2023-12-13T18:30:00.997Z,-28.81
2023-12-13T18:33:04.859Z,-28.77
2023-12-13T18:36:08.585Z,-28.85
2023-12-13T18:39:12.266Z,-28.97
2023-12-13T18:42:15.802Z,-29.06
2023-12-13T18:45:21.384Z,-29.15
2023-12-13T18:48:25.039Z,-29.29
2023-12-13T18:51:28.727Z,-29.27
2023-12-13T18:54:32.952Z,-29.24
2023-12-13T18:57:36.437Z,-29.20
2023-12-13T19:00:39.792Z,-29.31
2023-12-13T19:03:43.547Z,-29.23
2023-12-13T19:06:49.316Z,-29.19
2023-12-13T19:09:53.809Z,-29.16
2023-12-13T19:12:57.492Z,-29.23
2023-12-13T19:16:01.029Z,-29.24
2023-12-13T19:19:04.684Z,-29.30
2023-12-13T19:22:10.102Z,-29.29
2023-12-13T19:25:13.751Z,-29.23
2023-12-13T19:28:17.402Z,-29.19
2023-12-13T19:31:21.337Z,-29.29
2023-12-13T19:34:31.321Z,-29.32
2023-12-13T19:37:41.351Z,-29.33
2023-12-13T19:40:45.250Z,-29.41
2023-12-13T19:43:48.953Z,-29.40
2023-12-13T19:46:52.469Z,-29.37
2023-12-13T19:49:56.047Z,-29.40
2023-12-13T19:52:59.630Z,-29.35
2023-12-13T19:56:04.224Z,-29.35
2023-12-13T19:59:09.133Z,-29.39
2023-12-13T20:02:13.316Z,-29.42
2023-12-13T20:05:18.188Z,-29.46
2023-12-13T20:08:21.884Z,-29.50
2023-12-13T20:11:25.375Z,-29.46
2023-12-13T20:14:28.933Z,-29.43
2023-12-13T20:17:32.728Z,-29.47
2023-12-13T20:20:36.356Z,-29.61
2023-12-13T20:23:39.826Z,-29.62
2023-12-13T20:26:43.398Z,-29.52
2023-12-13T20:29:46.907Z,-29.51
2023-12-13T20:32:50.530Z,-29.50
2023-12-13T20:35:54.131Z,-29.59
2023-12-13T20:38:57.720Z,-29.72
2023-12-13T20:42:01.349Z,-29.80
2023-12-13T20:45:06.095Z,-29.71
2023-12-13T20:48:09.768Z,-29.71
2023-12-13T20:51:13.419Z,-29.75
2023-12-13T20:54:17.028Z,-29.69
2023-12-13T20:57:20.477Z,-29.68
2023-12-13T21:00:24.127Z,-29.78
2023-12-13T21:03:27.778Z,-29.74
2023-12-13T21:06:31.455Z,-29.69
2023-12-13T21:09:35.007Z,-29.82
2023-12-13T21:12:38.711Z,-29.87
2023-12-13T21:15:42.485Z,-29.84
2023-12-13T21:18:46.052Z,-29.88
2023-12-13T21:21:49.646Z,-29.81
2023-12-13T21:24:53.230Z,-29.80
2023-12-13T21:27:56.786Z,-29.85
2023-12-13T21:31:00.773Z,-29.83
2023-12-13T21:34:04.522Z,-29.83
2023-12-13T21:37:09.118Z,-29.88
2023-12-13T21:40:13.071Z,-29.86
2023-12-13T21:43:16.512Z,-29.72
2023-12-13T21:46:26.454Z,-29.73
2023-12-13T21:49:30.089Z,-29.83
2023-12-13T21:52:37.656Z,-29.88
2023-12-13T21:55:41.424Z,-29.89
2023-12-13T21:58:45.981Z,-29.88
2023-12-13T22:01:51.942Z,-29.78
2023-12-13T22:04:55.973Z,-29.84
2023-12-13T22:07:59.600Z,-29.81
2023-12-13T22:11:03.629Z,-29.76
2023-12-13T22:14:08.194Z,-29.62
2023-12-13T22:17:11.894Z,-29.56
2023-12-13T22:20:18.448Z,-29.67
2023-12-13T22:23:29.534Z,-29.74
2023-12-13T22:26:37.278Z,-29.76
2023-12-13T22:29:41.020Z,-29.70
2023-12-13T22:32:44.689Z,-29.70
2023-12-13T22:35:48.494Z,-29.75
2023-12-13T22:38:51.987Z,-29.78
2023-12-13T22:41:55.971Z,-29.85
2023-12-13T22:44:59.651Z,-29.77
2023-12-13T22:48:03.412Z,-29.73
2023-12-13T22:51:07.948Z,-29.76
2023-12-13T22:54:11.582Z,-29.72
2023-12-13T22:57:15.214Z,-29.67
2023-12-13T23:00:29.587Z,-29.70
2023-12-13T23:03:33.618Z,-29.76
2023-12-13T23:06:37.172Z,-29.70
2023-12-13T23:09:40.851Z,-29.69
2023-12-13T23:12:44.848Z,-29.61
2023-12-13T23:15:49.524Z,-29.55
2023-12-13T23:18:53.644Z,-29.52
2023-12-13T23:21:57.273Z,-29.46
2023-12-13T23:25:01.707Z,-29.43
2023-12-13T23:28:05.489Z,-29.41
2023-12-13T23:31:09.108Z,-29.43
2023-12-13T23:34:12.795Z,-29.40
2023-12-13T23:37:16.452Z,-29.43
2023-12-13T23:40:20.205Z,-29.56
2023-12-13T23:43:23.825Z,-29.63
2023-12-13T23:46:27.495Z,-29.69
2023-12-13T23:49:31.032Z,-29.78
2023-12-13T23:52:34.902Z,-29.88
2023-12-13T23:55:38.853Z,-29.93
2023-12-13T23:58:42.543Z,-29.98
